Time;durP1;ratioP1;P1;durP2;ratioP2;P2;SDS_P1;SDS_P2;PMS_P1;PMS_P2;Temp;Humidity;BMP_temperature;BMP_pressure;BME280_temperature;BME280_humidity;BME280_pressure;Samples;Min_cycle;Max_cycle;Signal;HPM_P1;HPM_P2
2021/04/05 00:02:05;;;;;;;12.50;10.70;;;;;;;;;;5044498;28;20599;-42
2021/04/05 00:04:30;;;;;;;14.30;11.77;;;;;;;;;;5049650;28;20184;-41
2021/04/05 00:06:55;;;;;;;14.60;11.68;;;;;;;;;;5044228;28;20176;-43
2021/04/05 00:09:20;;;;;;;18.87;11.47;;;;;;;;;;5041829;28;20176;-41
2021/04/05 00:11:45;;;;;;;17.10;12.27;;;;;;;;;;5049363;28;20164;-41
2021/04/05 00:14:11;;;;;;;13.70;11.97;;;;;;;;;;5042721;28;20180;-41
2021/04/05 00:16:36;;;;;;;15.87;13.73;;;;;;;;;;5049582;28;20286;-46
2021/04/05 00:19:01;;;;;;;19.35;13.95;;;;;;;;;;5038497;28;20266;-41
2021/04/05 00:21:27;;;;;;;24.93;14.43;;;;;;;;;;5045361;28;20182;-41
2021/04/05 00:23:53;;;;;;;19.87;14.33;;;;;;;;;;5048526;28;20181;-41
2021/04/05 00:26:18;;;;;;;18.63;15.60;;;;;;;;;;5045816;28;20882;-41
2021/04/05 00:28:44;;;;;;;20.10;15.00;;;;;;;;;;5049040;28;20180;-42
2021/04/05 00:31:09;;;;;;;18.60;14.53;;;;;;;;;;5044750;28;21189;-41
2021/04/05 00:33:34;;;;;;;17.47;13.70;;;;;;;;;;5048308;28;20581;-42
2021/04/05 00:35:59;;;;;;;20.47;13.63;;;;;;;;;;5046166;28;20172;-42
2021/04/05 00:38:24;;;;;;;18.60;14.07;;;;;;;;;;5048050;28;20179;-41
2021/04/05 00:40:55;;;;;;;16.83;13.10;;;;;;;;;;5046948;28;20179;-43
2021/04/05 00:43:20;;;;;;;18.40;13.47;;;;;;;;;;5042691;28;20184;-42
2021/04/05 00:45:46;;;;;;;18.60;13.40;;;;;;;;;;5045951;28;20624;-42
2021/04/05 00:48:12;;;;;;;17.80;12.37;;;;;;;;;;5048209;28;20186;-42
2021/04/05 00:50:42;;;;;;;18.13;12.10;;;;;;;;;;5048640;28;20250;-42
2021/04/05 00:53:09;;;;;;;15.37;12.00;;;;;;;;;;5049091;28;20599;-42
2021/04/05 00:55:34;;;;;;;15.40;11.50;;;;;;;;;;5050251;28;20675;-42
2021/04/05 00:57:59;;;;;;;13.07;11.53;;;;;;;;;;5048479;28;20693;-42
2021/04/05 01:00:30;;;;;;;14.07;11.33;;;;;;;;;;5047467;28;20722;-42
2021/04/05 01:02:56;;;;;;;14.80;11.77;;;;;;;;;;5044158;28;20259;-42
2021/04/05 01:05:21;;;;;;;17.03;12.13;;;;;;;;;;5047740;28;20686;-41
2021/04/05 01:07:47;;;;;;;15.00;12.33;;;;;;;;;;5048845;28;20172;-42
2021/04/05 01:10:12;;;;;;;20.13;11.00;;;;;;;;;;5047245;28;20198;-43
2021/04/05 01:12:38;;;;;;;15.17;11.73;;;;;;;;;;5043531;28;20195;-43
2021/04/05 01:15:10;;;;;;;14.27;10.93;;;;;;;;;;5047649;28;20180;-43
2021/04/05 01:17:36;;;;;;;18.00;13.30;;;;;;;;;;5038741;28;20761;-43
2021/04/05 01:20:05;;;;;;;14.57;12.13;;;;;;;;;;5038187;28;21025;-43
2021/04/05 01:22:30;;;;;;;17.73;11.47;;;;;;;;;;5039620;28;20241;-42
2021/04/05 01:24:55;;;;;;;13.95;12.20;;;;;;;;;;5044556;28;24423;-42
2021/04/05 01:27:20;;;;;;;14.13;11.97;;;;;;;;;;5044131;28;24978;-42
2021/04/05 01:29:45;;;;;;;16.40;12.98;;;;;;;;;;5044301;28;20594;-42
2021/04/05 01:32:11;;;;;;;15.37;12.53;;;;;;;;;;5042087;28;24454;-42
2021/04/05 01:34:37;;;;;;;15.53;12.30;;;;;;;;;;5047993;28;20183;-42
2021/04/05 01:37:02;;;;;;;16.53;12.03;;;;;;;;;;5047649;28;20998;-42
2021/04/05 01:39:27;;;;;;;14.00;12.30;;;;;;;;;;5048117;28;20620;-43
2021/04/05 01:41:52;;;;;;;21.13;11.60;;;;;;;;;;5041891;28;20192;-42
2021/04/05 01:44:18;;;;;;;14.10;11.87;;;;;;;;;;5047913;28;20183;-43
2021/04/05 01:46:43;;;;;;;14.65;12.05;;;;;;;;;;5039417;28;20198;-43
2021/04/05 01:49:09;;;;;;;15.70;10.63;;;;;;;;;;5045655;28;20378;-42
2021/04/05 01:51:34;;;;;;;14.57;11.33;;;;;;;;;;5043709;28;20168;-43
2021/04/05 01:53:59;;;;;;;14.27;10.90;;;;;;;;;;5038666;28;20216;-42
2021/04/05 01:56:24;;;;;;;12.40;10.80;;;;;;;;;;5046794;28;20200;-43
2021/04/05 01:58:51;;;;;;;13.57;10.63;;;;;;;;;;5046626;28;20810;-42
2021/04/05 02:01:18;;;;;;;13.53;11.07;;;;;;;;;;5046911;28;20647;-43
2021/04/05 02:03:43;;;;;;;15.50;11.67;;;;;;;;;;5047541;28;20587;-43
2021/04/05 02:06:13;;;;;;;16.73;11.00;;;;;;;;;;5047900;28;20608;-43
2021/04/05 02:08:39;;;;;;;18.57;11.50;;;;;;;;;;5046627;28;20173;-43
2021/04/05 02:11:07;;;;;;;14.27;11.23;;;;;;;;;;5046205;28;20599;-43
2021/04/05 02:13:32;;;;;;;15.00;11.10;;;;;;;;;;5045377;28;20218;-44
2021/04/05 02:15:57;;;;;;;11.50;10.27;;;;;;;;;;5046140;28;20638;-42
2021/04/05 02:18:23;;;;;;;17.17;10.60;;;;;;;;;;5045529;28;20200;-41
2021/04/05 02:20:49;;;;;;;13.13;10.00;;;;;;;;;;5046952;28;20180;-41
2021/04/05 02:23:14;;;;;;;17.00;11.10;;;;;;;;;;5046930;28;20597;-43
2021/04/05 02:26:06;;;;;;;18.10;11.30;;;;;;;;;;5047802;28;20176;-43
2021/04/05 02:28:25;;;;;;;16.77;10.83;;;;;;;;;;5038648;28;20259;-43
2021/04/05 02:30:51;;;;;;;15.90;11.80;;;;;;;;;;5042221;28;24416;-42
2021/04/05 02:33:16;;;;;;;16.03;11.60;;;;;;;;;;5041506;28;20582;-41
2021/04/05 02:35:41;;;;;;;11.80;10.57;;;;;;;;;;5047418;28;20180;-42
2021/04/05 02:38:07;;;;;;;18.60;11.20;;;;;;;;;;5045301;28;20215;-42
2021/04/05 02:40:32;;;;;;;13.27;11.43;;;;;;;;;;5044101;28;20203;-42
2021/04/05 02:42:57;;;;;;;12.33;11.03;;;;;;;;;;5040128;28;20184;-42
2021/04/05 02:45:23;;;;;;;12.10;10.20;;;;;;;;;;5045629;28;20168;-42
2021/04/05 02:47:49;;;;;;;16.87;11.00;;;;;;;;;;5042672;28;20172;-42
2021/04/05 02:50:15;;;;;;;13.10;10.57;;;;;;;;;;5043128;28;20598;-42
2021/04/05 02:52:41;;;;;;;11.17;9.73;;;;;;;;;;5044310;28;21179;-42
2021/04/05 02:55:08;;;;;;;17.13;10.50;;;;;;;;;;5046129;28;20227;-43
2021/04/05 02:57:37;;;;;;;13.97;11.03;;;;;;;;;;5036950;28;20780;-40
2021/04/05 03:00:08;;;;;;;13.00;9.90;;;;;;;;;;5043345;28;20765;-42
2021/04/05 03:02:33;;;;;;;12.90;10.80;;;;;;;;;;5045143;28;20660;-41
2021/04/05 03:05:00;;;;;;;19.03;12.13;;;;;;;;;;5044210;28;20623;-42
2021/04/05 03:07:25;;;;;;;15.03;11.20;;;;;;;;;;5035680;28;20267;-42
2021/04/05 03:09:50;;;;;;;12.97;11.00;;;;;;;;;;5041672;28;21097;-42
2021/04/05 03:12:15;;;;;;;17.13;10.53;;;;;;;;;;5049286;28;20191;-42
2021/04/05 03:14:40;;;;;;;14.10;10.00;;;;;;;;;;5045638;28;20182;-42
2021/04/05 03:17:08;;;;;;;12.53;10.23;;;;;;;;;;5049717;28;20202;-42
2021/04/05 03:19:33;;;;;;;14.37;11.17;;;;;;;;;;5042981;28;20219;-42
2021/04/05 03:21:59;;;;;;;14.30;10.30;;;;;;;;;;5046171;28;20626;-42
2021/04/05 03:24:24;;;;;;;13.60;10.10;;;;;;;;;;5045204;28;20172;-42
2021/04/05 03:26:49;;;;;;;15.70;10.07;;;;;;;;;;5046256;28;20185;-43
2021/04/05 03:29:15;;;;;;;14.57;10.05;;;;;;;;;;5048248;28;20689;-42
2021/04/05 03:31:41;;;;;;;12.60;9.53;;;;;;;;;;5044543;28;20183;-42
2021/04/05 03:34:18;;;;;;;10.43;9.33;;;;;;;;;;5048883;28;20694;-42
2021/04/05 03:37:02;;;;;;;12.17;9.80;;;;;;;;;;5048018;28;20202;-43
2021/04/05 03:39:28;;;;;;;11.60;10.40;;;;;;;;;;5047960;28;20628;-43
2021/04/05 03:42:06;;;;;;;13.00;10.30;;;;;;;;;;5044635;28;20640;-43
2021/04/05 03:44:40;;;;;;;14.33;9.83;;;;;;;;;;5049099;28;20648;-43
2021/04/05 03:47:10;;;;;;;13.67;10.90;;;;;;;;;;5047645;28;20614;-43
2021/04/05 03:49:40;;;;;;;16.20;10.87;;;;;;;;;;5049776;28;21188;-42
2021/04/05 03:52:12;;;;;;;13.03;10.03;;;;;;;;;;5039693;28;20621;-42
2021/04/05 03:54:45;;;;;;;16.40;10.53;;;;;;;;;;5049703;28;20648;-42
2021/04/05 03:57:12;;;;;;;16.00;10.20;;;;;;;;;;5044829;28;20634;-42
2021/04/05 03:59:39;;;;;;;13.73;10.20;;;;;;;;;;5044868;28;20598;-41
2021/04/05 04:02:07;;;;;;;13.17;9.40;;;;;;;;;;5045787;28;20598;-42
2021/04/05 04:04:45;;;;;;;12.87;9.87;;;;;;;;;;5044355;28;20594;-42
2021/04/05 04:07:19;;;;;;;10.80;9.73;;;;;;;;;;5045123;28;20626;-42
2021/04/05 04:09:45;;;;;;;17.30;10.10;;;;;;;;;;5049907;28;20672;-42
2021/04/05 04:12:13;;;;;;;11.93;10.00;;;;;;;;;;5046430;28;20601;-42
2021/04/05 04:14:39;;;;;;;10.07;9.13;;;;;;;;;;5040910;28;20184;-42
2021/04/05 04:17:06;;;;;;;10.93;9.70;;;;;;;;;;5044603;28;20664;-42
2021/04/05 04:19:32;;;;;;;11.33;10.03;;;;;;;;;;5041754;28;20597;-43
2021/04/05 04:21:57;;;;;;;15.37;10.40;;;;;;;;;;5046611;28;20603;-43
2021/04/05 04:24:22;;;;;;;13.33;9.60;;;;;;;;;;5041458;28;20654;-43
2021/04/05 04:26:47;;;;;;;12.10;9.80;;;;;;;;;;5044948;28;20653;-43
2021/04/05 04:29:14;;;;;;;16.63;10.10;;;;;;;;;;5044257;28;20189;-43
2021/04/05 04:31:39;;;;;;;12.47;9.73;;;;;;;;;;5047457;28;20176;-42
2021/04/05 04:34:05;;;;;;;13.33;9.53;;;;;;;;;;5049455;28;20644;-42
2021/04/05 04:36:30;;;;;;;14.40;10.23;;;;;;;;;;5045785;28;20600;-42
2021/04/05 04:38:55;;;;;;;11.30;9.37;;;;;;;;;;5047283;28;20172;-42
2021/04/05 04:41:24;;;;;;;16.53;10.77;;;;;;;;;;5042105;28;20271;-43
2021/04/05 04:43:56;;;;;;;14.17;8.60;;;;;;;;;;5046791;28;20619;-43
2021/04/05 04:46:22;;;;;;;11.80;9.50;;;;;;;;;;5045036;28;21161;-42
2021/04/05 04:48:47;;;;;;;14.37;9.83;;;;;;;;;;5044438;28;20682;-42
2021/04/05 04:51:12;;;;;;;11.90;10.40;;;;;;;;;;5042905;28;20190;-43
2021/04/05 04:53:37;;;;;;;13.80;10.60;;;;;;;;;;5042554;28;20503;-43
2021/04/05 04:56:02;;;;;;;11.02;9.80;;;;;;;;;;5045451;28;20240;-44
2021/04/05 04:58:27;;;;;;;12.53;10.43;;;;;;;;;;5047529;28;20199;-43
2021/04/05 05:00:53;;;;;;;15.20;11.03;;;;;;;;;;5044807;28;20177;-43
2021/04/05 05:03:19;;;;;;;12.83;10.60;;;;;;;;;;5044252;28;20175;-43
2021/04/05 05:05:45;;;;;;;16.20;10.83;;;;;;;;;;5046383;28;20167;-42
2021/04/05 05:08:10;;;;;;;14.40;10.63;;;;;;;;;;5045653;28;20617;-43
2021/04/05 05:10:35;;;;;;;11.57;10.37;;;;;;;;;;5047366;28;20180;-41
2021/04/05 05:13:01;;;;;;;19.77;12.07;;;;;;;;;;5042910;28;20798;-42
2021/04/05 05:15:29;;;;;;;16.80;11.77;;;;;;;;;;5047590;28;20186;-41
2021/04/05 05:17:54;;;;;;;13.17;10.87;;;;;;;;;;5047893;28;20663;-41
2021/04/05 05:20:20;;;;;;;13.37;11.23;;;;;;;;;;5047559;28;20593;-42
2021/04/05 05:22:47;;;;;;;15.33;12.17;;;;;;;;;;5047152;28;20172;-42
2021/04/05 05:25:15;;;;;;;13.80;11.03;;;;;;;;;;5042449;28;20273;-42
2021/04/05 05:27:42;;;;;;;12.33;10.97;;;;;;;;;;5046971;28;21148;-45
2021/04/05 05:30:09;;;;;;;15.67;11.07;;;;;;;;;;5043021;28;21286;-43
2021/04/05 05:32:35;;;;;;;14.00;11.03;;;;;;;;;;5047276;28;20633;-42
2021/04/05 05:35:00;;;;;;;12.73;11.43;;;;;;;;;;5042365;28;20602;-42
2021/04/05 05:37:25;;;;;;;15.50;12.70;;;;;;;;;;5037872;28;21268;-42
2021/04/05 05:39:51;;;;;;;14.67;11.73;;;;;;;;;;5042771;28;20169;-42
2021/04/05 05:42:31;;;;;;;16.90;12.00;;;;;;;;;;5047333;28;20177;-41
2021/04/05 05:45:01;;;;;;;16.70;11.87;;;;;;;;;;5046961;28;20237;-42
2021/04/05 05:47:45;;;;;;;14.77;12.10;;;;;;;;;;5040314;28;20638;-42
2021/04/05 05:50:31;;;;;;;14.93;12.30;;;;;;;;;;5038919;28;21036;-41
2021/04/05 05:53:19;;;;;;;15.63;12.87;;;;;;;;;;5045049;28;20645;-42
2021/04/05 05:55:53;;;;;;;13.93;12.53;;;;;;;;;;5044381;28;20647;-42
2021/04/05 05:58:33;;;;;;;13.97;12.13;;;;;;;;;;5047324;28;20637;-42
2021/04/05 06:01:05;;;;;;;13.57;12.20;;;;;;;;;;5047136;28;21170;-42
2021/04/05 06:03:33;;;;;;;15.83;12.43;;;;;;;;;;5039342;28;21214;-42
2021/04/05 06:06:13;;;;;;;17.30;13.87;;;;;;;;;;5041081;28;20604;-42
2021/04/05 06:08:56;;;;;;;17.63;12.63;;;;;;;;;;5044685;28;20589;-43
2021/04/05 06:11:40;;;;;;;13.47;11.23;;;;;;;;;;5045080;28;20600;-43
2021/04/05 06:14:11;;;;;;;16.60;13.60;;;;;;;;;;5047515;28;20655;-43
2021/04/05 06:16:46;;;;;;;17.00;13.03;;;;;;;;;;5046600;28;21265;-40
2021/04/05 06:19:18;;;;;;;18.30;14.53;;;;;;;;;;5044623;28;21197;-41
2021/04/05 06:21:49;;;;;;;14.77;13.37;;;;;;;;;;5043286;28;20611;-43
2021/04/05 06:24:26;;;;;;;16.20;12.83;;;;;;;;;;5045250;28;20652;-43
2021/04/05 06:26:52;;;;;;;16.40;12.90;;;;;;;;;;5042568;28;20613;-42
2021/04/05 06:29:26;;;;;;;16.83;13.10;;;;;;;;;;5041948;28;20601;-42
2021/04/05 06:32:10;;;;;;;13.23;11.93;;;;;;;;;;5045996;28;20656;-42
2021/04/05 06:34:35;;;;;;;12.47;11.17;;;;;;;;;;5044886;28;21154;-42
2021/04/05 06:37:19;;;;;;;13.37;11.97;;;;;;;;;;5044642;28;20645;-43
2021/04/05 06:39:52;;;;;;;15.80;12.20;;;;;;;;;;5044272;28;20218;-43
2021/04/05 06:42:44;;;;;;;14.70;11.97;;;;;;;;;;5039486;28;20607;-42
2021/04/05 06:45:28;;;;;;;11.70;10.50;;;;;;;;;;5035180;28;20629;-43
2021/04/05 06:48:11;;;;;;;14.80;10.40;;;;;;;;;;5048795;28;20617;-42
2021/04/05 06:50:36;;;;;;;13.30;11.07;;;;;;;;;;5051453;28;20677;-43
2021/04/05 06:53:23;;;;;;;13.10;11.52;;;;;;;;;;5051242;28;20634;-43
2021/04/05 06:55:55;;;;;;;14.13;11.37;;;;;;;;;;5048477;28;20245;-43
2021/04/05 06:58:26;;;;;;;14.13;10.30;;;;;;;;;;5041831;28;20641;-43
2021/04/05 07:01:10;;;;;;;11.90;10.63;;;;;;;;;;5049909;28;20613;-43
2021/04/05 07:03:54;;;;;;;15.90;11.07;;;;;;;;;;5049899;28;20694;-43
2021/04/05 07:06:34;;;;;;;14.27;9.50;;;;;;;;;;5047106;28;20599;-43
2021/04/05 07:09:05;;;;;;;11.73;8.53;;;;;;;;;;5045259;28;20596;-43
2021/04/05 07:11:34;;;;;;;11.70;9.10;;;;;;;;;;5049627;28;20602;-43
2021/04/05 07:14:17;;;;;;;13.30;9.50;;;;;;;;;;5045596;28;20588;-43
2021/04/05 07:16:42;;;;;;;11.63;8.90;;;;;;;;;;5049881;28;20738;-44
2021/04/05 07:19:17;;;;;;;13.33;9.40;;;;;;;;;;5050891;28;20732;-42
2021/04/05 07:21:44;;;;;;;12.83;9.63;;;;;;;;;;5050698;28;20259;-43
2021/04/05 07:24:22;;;;;;;10.27;9.17;;;;;;;;;;5051018;28;20600;-43
2021/04/05 07:26:50;;;;;;;10.40;9.30;;;;;;;;;;5050187;28;20615;-42
2021/04/05 07:29:20;;;;;;;11.67;9.20;;;;;;;;;;5050206;28;20606;-43
2021/04/05 07:31:52;;;;;;;12.53;9.10;;;;;;;;;;5048966;28;20601;-42
2021/04/05 07:34:17;;;;;;;16.10;10.07;;;;;;;;;;5048028;28;20974;-43
2021/04/05 07:36:46;;;;;;;14.98;9.65;;;;;;;;;;5049453;28;21013;-43
2021/04/05 07:39:17;;;;;;;9.57;8.57;;;;;;;;;;5047379;28;20198;-43
2021/04/05 07:41:49;;;;;;;13.30;8.87;;;;;;;;;;5036848;28;20647;-42
2021/04/05 07:44:33;;;;;;;13.87;9.13;;;;;;;;;;5052355;28;20624;-41
2021/04/05 07:47:08;;;;;;;15.00;9.60;;;;;;;;;;5051414;28;20693;-41
2021/04/05 07:49:38;;;;;;;10.00;9.00;;;;;;;;;;5057859;28;20627;-42
2021/04/05 07:52:24;;;;;;;26.23;17.27;;;;;;;;;;5046317;28;20610;-42
2021/04/05 07:54:50;;;;;;;13.27;11.00;;;;;;;;;;5043843;28;21288;-42
2021/04/05 07:57:18;;;;;;;12.80;10.50;;;;;;;;;;5045757;28;20642;-41
2021/04/05 07:59:53;;;;;;;15.93;9.77;;;;;;;;;;5049855;28;21210;-43
2021/04/05 08:02:33;;;;;;;13.97;10.23;;;;;;;;;;5050021;28;20657;-43
2021/04/05 08:05:10;;;;;;;10.93;9.40;;;;;;;;;;5049260;28;20602;-42
2021/04/05 08:07:43;;;;;;;12.73;9.33;;;;;;;;;;5046540;28;20672;-44
2021/04/05 08:10:18;;;;;;;12.03;9.73;;;;;;;;;;5048436;28;20675;-44
2021/04/05 08:12:54;;;;;;;14.10;9.60;;;;;;;;;;5048927;28;20954;-42
2021/04/05 08:15:26;;;;;;;11.00;9.53;;;;;;;;;;5048996;28;20693;-42
2021/04/05 08:18:05;;;;;;;13.07;9.37;;;;;;;;;;5049536;28;20648;-42
2021/04/05 08:20:36;;;;;;;13.60;9.10;;;;;;;;;;5048206;28;20591;-45
2021/04/05 08:23:19;;;;;;;14.17;9.57;;;;;;;;;;5038769;28;22216;-42
2021/04/05 08:26:12;;;;;;;12.50;10.00;;;;;;;;;;5047624;28;20660;-43
2021/04/05 08:28:50;;;;;;;13.73;10.33;;;;;;;;;;5046497;28;20601;-44
2021/04/05 08:31:21;;;;;;;10.60;9.50;;;;;;;;;;5048470;28;20611;-43
2021/04/05 08:33:58;;;;;;;10.10;8.67;;;;;;;;;;5044514;28;21160;-42
2021/04/05 08:36:35;;;;;;;15.33;10.10;;;;;;;;;;5048090;28;20718;-43
2021/04/05 08:39:03;;;;;;;13.90;11.00;;;;;;;;;;5058020;28;20606;-43
2021/04/05 08:41:53;;;;;;;11.30;10.20;;;;;;;;;;5048419;28;20634;-43
2021/04/05 08:44:24;;;;;;;10.70;9.07;;;;;;;;;;5047759;28;20602;-43
2021/04/05 08:46:53;;;;;;;15.07;9.57;;;;;;;;;;5046789;28;20599;-43
2021/04/05 08:49:19;;;;;;;14.80;10.37;;;;;;;;;;5048262;28;20890;-42
2021/04/05 08:51:47;;;;;;;12.17;9.23;;;;;;;;;;5046287;28;20690;-43
2021/04/05 08:54:19;;;;;;;14.53;10.30;;;;;;;;;;5048988;28;21187;-42
2021/04/05 08:56:49;;;;;;;11.63;9.57;;;;;;;;;;5048461;28;21060;-43
2021/04/05 08:59:22;;;;;;;13.83;9.77;;;;;;;;;;5045748;28;21220;-42
2021/04/05 09:01:49;;;;;;;11.07;9.83;;;;;;;;;;5055799;28;20606;-42
2021/04/05 09:04:24;;;;;;;15.77;10.20;;;;;;;;;;5048704;28;20601;-43
2021/04/05 09:07:09;;;;;;;13.43;10.43;;;;;;;;;;5041728;28;20598;-42
2021/04/05 09:09:35;;;;;;;11.70;10.13;;;;;;;;;;5021492;28;20635;-42
2021/04/05 09:12:01;;;;;;;14.57;10.57;;;;;;;;;;5049052;28;20616;-43
2021/04/05 09:14:27;;;;;;;14.80;10.73;;;;;;;;;;5048113;28;20245;-42
2021/04/05 09:16:52;;;;;;;13.97;11.10;;;;;;;;;;5048461;28;20638;-44
2021/04/05 09:19:24;;;;;;;12.80;9.70;;;;;;;;;;5048407;28;20177;-41
2021/04/05 09:22:08;;;;;;;13.30;11.00;;;;;;;;;;5044739;28;20267;-42
2021/04/05 09:24:52;;;;;;;13.30;10.43;;;;;;;;;;5042005;28;20585;-43
2021/04/05 09:27:28;;;;;;;11.80;10.20;;;;;;;;;;5039153;28;20604;-43
2021/04/05 09:30:28;;;;;;;10.67;9.33;;;;;;;;;;5042123;28;21166;-42
2021/04/05 09:33:17;;;;;;;15.20;9.73;;;;;;;;;;5045341;28;20599;-43
2021/04/05 09:36:00;;;;;;;16.10;11.20;;;;;;;;;;5041226;28;20655;-43
2021/04/05 09:38:34;;;;;;;14.03;9.77;;;;;;;;;;5043865;28;20777;-43
2021/04/05 09:41:09;;;;;;;10.23;9.13;;;;;;;;;;5049580;28;20611;-43
2021/04/05 09:43:53;;;;;;;11.23;9.53;;;;;;;;;;5047864;28;21455;-44
2021/04/05 09:46:37;;;;;;;14.70;10.47;;;;;;;;;;5042524;28;20803;-43
2021/04/05 09:49:08;;;;;;;12.30;10.70;;;;;;;;;;5045788;28;20938;-43
2021/04/05 09:51:42;;;;;;;13.67;10.40;;;;;;;;;;5045586;28;21251;-43
2021/04/05 09:54:20;;;;;;;12.07;10.40;;;;;;;;;;5045446;28;20637;-42
2021/04/05 09:56:48;;;;;;;15.03;10.80;;;;;;;;;;5042021;28;21005;-42
2021/04/05 09:59:16;;;;;;;12.33;10.03;;;;;;;;;;5047107;28;20594;-43
2021/04/05 10:01:42;;;;;;;13.70;11.90;;;;;;;;;;5047557;28;20629;-41
2021/04/05 10:04:11;;;;;;;18.97;11.67;;;;;;;;;;5048180;28;20957;-42
2021/04/05 10:06:36;;;;;;;14.13;11.20;;;;;;;;;;5039312;28;20183;-42
2021/04/05 10:09:03;;;;;;;15.77;11.50;;;;;;;;;;5047001;28;20598;-43
2021/04/05 10:11:29;;;;;;;19.93;12.70;;;;;;;;;;5046529;28;20246;-42
2021/04/05 10:13:56;;;;;;;16.53;12.73;;;;;;;;;;5047062;28;20595;-42
2021/04/05 10:16:22;;;;;;;16.40;12.67;;;;;;;;;;5041535;28;20967;-43
2021/04/05 10:18:48;;;;;;;15.87;11.57;;;;;;;;;;5046865;28;20646;-42
2021/04/05 10:21:13;;;;;;;15.53;12.50;;;;;;;;;;5046106;28;20207;-43
2021/04/05 10:23:39;;;;;;;15.17;10.90;;;;;;;;;;5045696;28;20643;-44
2021/04/05 10:26:04;;;;;;;18.13;12.33;;;;;;;;;;5047131;28;20242;-43
2021/04/05 10:28:34;;;;;;;16.40;11.40;;;;;;;;;;5046703;28;20199;-42
2021/04/05 10:31:00;;;;;;;18.83;11.57;;;;;;;;;;5047240;28;20183;-42
2021/04/05 10:33:29;;;;;;;16.90;13.57;;;;;;;;;;5046592;28;21158;-42
2021/04/05 10:35:55;;;;;;;14.50;11.20;;;;;;;;;;5042653;28;20610;-43
2021/04/05 10:38:20;;;;;;;15.53;12.00;;;;;;;;;;5046577;28;20653;-42
2021/04/05 10:40:47;;;;;;;12.00;10.67;;;;;;;;;;5058130;28;20711;-43
2021/04/05 10:43:18;;;;;;;13.90;11.00;;;;;;;;;;5041833;28;20193;-42
2021/04/05 10:45:46;;;;;;;13.37;9.90;;;;;;;;;;5043946;28;20597;-43
2021/04/05 10:48:18;;;;;;;12.50;11.27;;;;;;;;;;5046916;28;20604;-42
2021/04/05 10:50:45;;;;;;;13.27;11.20;;;;;;;;;;5044603;28;20613;-44
2021/04/05 10:53:13;;;;;;;13.40;10.90;;;;;;;;;;5039813;28;20633;-41
2021/04/05 10:55:40;;;;;;;16.13;11.57;;;;;;;;;;5047917;28;20663;-43
2021/04/05 10:58:07;;;;;;;17.27;11.73;;;;;;;;;;5046823;28;20798;-43
2021/04/05 11:00:39;;;;;;;13.03;11.50;;;;;;;;;;5043967;28;20614;-43
2021/04/05 11:03:10;;;;;;;15.40;11.80;;;;;;;;;;5047745;28;20700;-43
2021/04/05 11:05:36;;;;;;;12.20;11.00;;;;;;;;;;5047542;28;20647;-43
2021/04/05 11:08:03;;;;;;;12.83;11.50;;;;;;;;;;5046082;28;20605;-43
2021/04/05 11:10:29;;;;;;;13.43;10.70;;;;;;;;;;5048065;28;20623;-43
2021/04/05 11:13:03;;;;;;;15.20;11.83;;;;;;;;;;5047424;28;21011;-43
2021/04/05 11:15:29;;;;;;;15.20;12.93;;;;;;;;;;5047396;28;20632;-42
2021/04/05 11:17:55;;;;;;;17.67;12.10;;;;;;;;;;5046105;28;20671;-41
2021/04/05 11:20:21;;;;;;;14.73;13.13;;;;;;;;;;5039654;28;20181;-43
2021/04/05 11:22:54;;;;;;;13.50;12.10;;;;;;;;;;5043425;28;20661;-43
2021/04/05 11:25:21;;;;;;;14.40;12.13;;;;;;;;;;5046531;28;20594;-43
2021/04/05 11:27:49;;;;;;;17.43;13.23;;;;;;;;;;5046788;28;20606;-43
2021/04/05 11:30:23;;;;;;;17.63;12.97;;;;;;;;;;5044710;28;20641;-42
2021/04/05 11:32:49;;;;;;;16.30;13.60;;;;;;;;;;5048896;28;20603;-42
2021/04/05 11:35:14;;;;;;;19.33;14.90;;;;;;;;;;5050704;28;20597;-42
2021/04/05 11:37:40;;;;;;;21.67;14.20;;;;;;;;;;5049430;28;20642;-41
2021/04/05 11:40:10;;;;;;;15.00;13.40;;;;;;;;;;5033890;28;20220;-42
2021/04/05 11:42:37;;;;;;;15.70;14.03;;;;;;;;;;5045882;28;20178;-42
2021/04/05 11:45:03;;;;;;;14.63;13.10;;;;;;;;;;5048983;28;20611;-42
2021/04/05 11:47:33;;;;;;;16.77;13.63;;;;;;;;;;5049513;28;21012;-42
2021/04/05 11:49:59;;;;;;;17.57;13.77;;;;;;;;;;5051105;28;20263;-43
2021/04/05 11:52:47;;;;;;;17.30;13.70;;;;;;;;;;5050437;28;20681;-43
2021/04/05 11:55:17;;;;;;;14.77;13.13;;;;;;;;;;5047413;28;20215;-44
2021/04/05 11:57:44;;;;;;;18.97;14.37;;;;;;;;;;5049806;28;20660;-42
2021/04/05 12:00:10;;;;;;;14.13;12.27;;;;;;;;;;5050263;28;20597;-44
2021/04/05 12:02:46;;;;;;;14.23;12.83;;;;;;;;;;5050032;28;21196;-44
2021/04/05 12:05:18;;;;;;;14.00;12.63;;;;;;;;;;5049908;28;20655;-43
2021/04/05 12:07:45;;;;;;;12.87;11.50;;;;;;;;;;5050178;28;20603;-43
2021/04/05 12:10:18;;;;;;;13.70;11.40;;;;;;;;;;5046957;28;20934;-43
2021/04/05 12:12:45;;;;;;;12.10;10.43;;;;;;;;;;5041532;28;21228;-43
2021/04/05 12:15:15;;;;;;;13.07;11.80;;;;;;;;;;5046954;28;20606;-42
2021/04/05 12:17:40;;;;;;;13.87;11.63;;;;;;;;;;5039196;28;20735;-42
2021/04/05 12:20:06;;;;;;;16.10;12.00;;;;;;;;;;5046367;28;21155;-42
2021/04/05 12:22:33;;;;;;;8.00;6.50;;;;;;;;;;5046292;28;20210;-42
2021/04/05 12:24:59;;;;;;;6.13;5.53;;;;;;;;;;5046227;28;20706;-42
2021/04/05 12:27:31;;;;;;;4.30;3.63;;;;;;;;;;5046455;28;20614;-42
2021/04/05 12:29:56;;;;;;;1.90;1.70;;;;;;;;;;5039053;28;20649;-41
2021/04/05 12:32:22;;;;;;;1.80;1.70;;;;;;;;;;5045832;28;20598;-41
2021/04/05 12:34:47;;;;;;;;;;;;;;;;;;5041389;28;20087;-43
2021/04/05 12:37:13;;;;;;;1.25;1.23;;;;;;;;;;5044541;28;20417;-43
2021/04/05 12:39:39;;;;;;;1.53;1.43;;;;;;;;;;5045230;28;20180;-44
2021/04/05 12:42:12;;;;;;;1.17;1.17;;;;;;;;;;5046508;28;20649;-42
2021/04/05 12:44:38;;;;;;;1.70;1.60;;;;;;;;;;5044635;28;20183;-43
2021/04/05 12:47:06;;;;;;;1.10;1.10;;;;;;;;;;5039165;28;20962;-44
2021/04/05 12:49:34;;;;;;;1.30;1.30;;;;;;;;;;5041654;28;20626;-42
2021/04/05 12:52:01;;;;;;;1.20;1.20;;;;;;;;;;5042273;28;20617;-42
2021/04/05 12:54:28;;;;;;;5.70;2.87;;;;;;;;;;5038578;28;20638;-42
2021/04/05 12:56:55;;;;;;;1.27;1.20;;;;;;;;;;5043937;28;20768;-42
2021/04/05 12:59:25;;;;;;;1.93;1.50;;;;;;;;;;5046027;28;21005;-42
2021/04/05 13:01:53;;;;;;;1.67;1.57;;;;;;;;;;5042132;28;20626;-42
2021/04/05 13:04:22;;;;;;;8.70;5.10;;;;;;;;;;5046294;28;21155;-42
2021/04/05 13:06:51;;;;;;;1.70;1.67;;;;;;;;;;5045424;28;20616;-42
2021/04/05 13:09:18;;;;;;;2.10;2.00;;;;;;;;;;5045761;28;20652;-43
2021/04/05 13:12:04;;;;;;;2.07;1.97;;;;;;;;;;5044095;28;20603;-43
2021/04/05 13:14:33;;;;;;;8.90;5.37;;;;;;;;;;5028704;28;20609;-42
2021/04/05 13:17:08;;;;;;;10.27;5.93;;;;;;;;;;5042068;28;20635;-42
2021/04/05 13:19:37;;;;;;;33.53;15.70;;;;;;;;;;5045298;28;20743;-43
2021/04/05 13:22:03;;;;;;;35.17;15.33;;;;;;;;;;5045298;28;20695;-43
2021/04/05 13:24:31;;;;;;;28.23;10.90;;;;;;;;;;5045648;28;21234;-43
2021/04/05 13:26:57;;;;;;;15.53;12.03;;;;;;;;;;5044820;28;20593;-42
2021/04/05 13:29:23;;;;;;;21.23;15.67;;;;;;;;;;5037820;28;20626;-42
2021/04/05 13:31:50;;;;;;;9.03;8.13;;;;;;;;;;5045651;28;20690;-42
2021/04/05 13:34:21;;;;;;;2.57;2.30;;;;;;;;;;5045463;28;21307;-43
2021/04/05 13:36:46;;;;;;;2.17;1.97;;;;;;;;;;5044324;28;20618;-43
2021/04/05 13:39:12;;;;;;;3.10;2.87;;;;;;;;;;5044475;28;21339;-43
2021/04/05 13:41:38;;;;;;;7.40;6.70;;;;;;;;;;5044142;28;20581;-43
2021/04/05 13:44:10;;;;;;;3.80;3.50;;;;;;;;;;5045004;28;20596;-42
2021/04/05 13:46:36;;;;;;;5.03;4.30;;;;;;;;;;5044513;28;20613;-43
2021/04/05 13:49:18;;;;;;;3.23;2.97;;;;;;;;;;5044792;28;20608;-43
2021/04/05 13:51:44;;;;;;;4.40;4.00;;;;;;;;;;5040978;28;20709;-42
2021/04/05 13:54:10;;;;;;;5.30;3.60;;;;;;;;;;5044260;28;20695;-42
2021/04/05 13:56:36;;;;;;;4.33;3.93;;;;;;;;;;5036772;28;20944;-42
2021/04/05 13:59:09;;;;;;;3.53;3.23;;;;;;;;;;5038585;28;20204;-44
2021/04/05 14:01:35;;;;;;;5.73;5.10;;;;;;;;;;5043562;28;20610;-41
2021/04/05 14:04:01;;;;;;;5.90;5.30;;;;;;;;;;5043946;28;20595;-42
2021/04/05 14:06:32;;;;;;;6.60;6.00;;;;;;;;;;5037633;28;20182;-43
2021/04/05 14:08:58;;;;;;;5.77;5.00;;;;;;;;;;5036393;28;20181;-42
2021/04/05 14:11:23;;;;;;;4.90;3.43;;;;;;;;;;5042578;28;20651;-42
2021/04/05 14:13:51;;;;;;;5.10;4.60;;;;;;;;;;5037876;28;20562;-41
2021/04/05 14:16:19;;;;;;;3.27;3.07;;;;;;;;;;5044414;28;20172;-42
2021/04/05 14:18:50;;;;;;;3.33;3.13;;;;;;;;;;5044244;28;20654;-42
2021/04/05 14:21:16;;;;;;;3.33;3.03;;;;;;;;;;5032273;28;20627;-42
2021/04/05 14:23:43;;;;;;;3.17;2.97;;;;;;;;;;5042804;28;21304;-41
2021/04/05 14:26:09;;;;;;;3.60;3.40;;;;;;;;;;5047247;28;20631;-42
2021/04/05 14:28:50;;;;;;;4.00;3.70;;;;;;;;;;5046417;28;21154;-42
2021/04/05 14:31:18;;;;;;;3.73;3.43;;;;;;;;;;5047613;28;20602;-42
2021/04/05 14:33:54;;;;;;;3.43;3.13;;;;;;;;;;5047193;28;20653;-42
2021/04/05 14:36:28;;;;;;;3.47;3.27;;;;;;;;;;5046863;28;21217;-43
2021/04/05 14:38:54;;;;;;;3.20;2.90;;;;;;;;;;5046547;28;20670;-41